Station: Gove Airport  

  Atmospheric Gas Attenuation - ITU Rec 676-11   ----------------- dB/100km -----------------
Date Time Temp RH % AH g/m3 Dew Point Wind Direction Speed kph Gust kph Barometer mB Rainfall Since 9am 24GHz 47GHz 76GHz 122GHz 134GHz 241GHz
05/09 17:30 26.2 74 18.22 21.2 20 26 1015 0 39.2 38.1 72.5 191.7 209.7 728.5
05/09 17:20 26.2 73 17.97 21 22 28 1015 0 38.6 37.6 71.4 188.7 206.0 715.6
05/09 17:10 27.1 70 18.12 21.2 19 28 1014.9 0 38.9 37.5 71.2 188.3 205.8 714.8
05/09 17:00 26.8 70 17.82 20.9 19 26 1014.9 0 38.3 37.1 70.1 185.4 202.2 702.3
05/09 16:50 26.6 71 17.87 20.9 20 28 1014.9 0 38.4 37.3 70.5 186.5 203.4 706.7
05/09 16:40 27.4 70 18.42 21.4 19 26 1014.8 0 39.5 37.9 72.2 191.1 209.3 727.3
05/09 16:30 27 71 18.27 21.3 20 30 1014.7 0 39.2 37.8 71.9 190.3 208.2 723.4
05/09 16:20 28.3 68 18.8 21.8 19 24 1014.5 0 40.2 38.2 73.1 193.3 212.3 738.0
05/09 16:10 28.3 66 18.25 21.3 17 22 1014.4 0 39.0 37.2 70.6 186.8 204.3 710.0
05/09 16:00 28.1 64 17.5 20.6 17 22 1014.3 0 37.5 36.0 67.5 178.5 194.1 674.3
05/09 15:50 28.3 66 18.25 21.3 17 24 1014.3 0 39.0 37.2 70.6 186.8 204.3 710.0
05/09 15:40 28.1 66 18.05 21.1 19 26 1014.3 0 38.6 36.9 69.9 184.9 202.0 701.8
05/09 15:30 28 67 18.22 21.3 17 24 1014.3 0 39.0 37.3 70.8 187.2 204.7 711.2
05/09 15:20 27.5 68 17.99 21.1 20 30 1014.5 0 38.6 37.1 70.2 185.7 202.7 704.3
05/09 15:10 28.3 65 17.97 21.1 19 26 1014.6 0 38.4 36.7 69.4 183.5 200.3 696.1
05/09 15:00 28.7 65 18.37 21.5 19 28 1014.7 0 39.2 37.3 70.8 187.3 205.0 712.5
05/09 14:50 28.5 66 18.45 21.5 19 28 1014.9 0 39.4 37.5 71.4 188.7 206.7 718.5
05/09 14:40 28.9 65 18.57 21.7 20 28 1015 0 39.6 37.5 71.5 189.2 207.4 720.8
05/09 14:30 28.6 66 18.55 21.6 20 28 1015.1 0 39.6 37.6 71.7 189.7 208.0 722.7
05/09 14:20 27.4 69 18.16 21.2 20 32 1015.3 0 38.9 37.5 71.1 188.1 205.6 714.3
05/09 14:10 28.4 68 18.9 21.9 19 28 1015.3 0 40.4 38.4 73.5 194.4 213.7 742.5
05/09 14:00 27.4 68 17.89 21 20 24 1015.4 0 38.4 37.0 69.9 184.9 201.7 700.6
05/09 13:50 28.5 63 17.61 20.8 19 30 1015.5 0 37.7 36.0 67.7 179.0 194.8 676.8
05/09 13:40 27.9 66 17.85 21 17 22 1015.6 0 38.2 36.7 69.3 183.2 199.8 694.2
05/09 13:30 29.1 60 17.33 20.5 19 24 1015.6 0 37.0 35.3 66.0 174.5 189.4 658.0
05/09 13:20 29.1 63 18.2 21.3 19 26 1015.7 0 38.8 36.8 69.8 184.5 201.7 700.8
05/09 13:10 29 64 18.39 21.5 19 26 1015.8 0 39.2 37.2 70.7 186.9 204.7 711.3
05/09 13:00 28.4 65 18.07 21.2 19 24 1015.9 0 38.6 36.9 69.8 184.7 201.7 700.8
05/09 12:50 28.9 63 18 21.1 20 28 1016.1 0 38.4 36.6 69.1 182.7 199.4 692.9
05/09 12:40 27.3 66 17.27 20.4 22 30 1016.2 0 37.1 36.0 67.3 177.9 193.1 670.8
05/09 12:30 28.3 62 17.14 20.3 20 32 1016.2 0 36.7 35.3 65.9 174.2 188.7 655.8
05/09 12:20 28.1 66 18.05 21.1 20 26 1016.4 0 38.6 37.0 70.0 185.2 202.3 702.8
05/09 12:10 28.8 64 18.19 21.3 19 30 1016.6 0 38.8 37.0 70.0 185.2 202.4 703.5
05/09 12:00 27.8 66 17.75 20.9 20 30 1016.8 0 38.0 36.6 69.0 182.5 198.8 690.6
05/09 11:50 28.5 64 17.89 21 17 26 1016.9 0 38.2 36.6 69.0 182.5 199.0 691.4
05/09 11:40 29 67 19.25 22.2 19 26 1017 0 41.0 38.8 74.6 197.3 217.3 755.4
05/09 11:30 27.8 66 17.75 20.9 19 30 1017.2 0 38.0 36.6 69.0 182.5 198.8 690.8
05/09 11:20 28.4 65 18.07 21.2 19 28 1017.2 0 38.6 37.0 69.9 184.8 201.9 701.4
05/09 11:10 28.3 63 17.42 20.6 20 28 1017.3 0 37.3 35.9 67.2 177.5 192.8 670.1
05/09 11:00 28.8 63 17.9 21.1 19 26 1017.4 0 38.2 36.5 68.8 181.9 198.4 689.5
05/09 10:50 28.9 62 17.71 20.9 17 24 1017.5 0 37.8 36.1 67.9 179.5 195.5 679.2
05/09 10:40 28.5 61 17.05 20.2 19 24 1017.6 0 36.5 35.1 65.4 172.9 187.2 650.3
05/09 10:30 28.4 59 16.4 19.6 20 28 1017.7 0 35.1 34.1 62.7 165.8 178.4 619.7
05/09 10:20 28.7 61 17.24 20.4 17 22 1017.8 0 36.9 35.4 66.1 174.6 189.4 658.0
05/09 10:10 28.3 60 16.59 19.8 19 28 1017.8 0 35.5 34.4 63.6 168.1 181.3 629.7
05/09 10:00 28.6 59 16.58 19.8 15 20 1017.7 0 35.5 34.3 63.3 167.4 180.4 626.8
05/09 09:50 28.4 63 17.51 20.7 15 22 1017.7 0 37.4 36.0 67.5 178.4 193.9 673.8
05/09 09:40 27.6 65 17.29 20.4 17 24 1017.6 0 37.1 35.9 67.2 177.7 192.8 669.8
05/09 09:30 27.6 65 17.29 20.4 17 22 1017.6 0 37.1 35.9 67.2 177.7 192.8 669.8
05/09 09:20 27.4 67 17.63 20.7 15 22 1017.6 0 37.8 36.6 68.9 182.1 198.2 688.6
05/09 09:10 27.4 67 17.63 20.7 17 22 1017.6 0 37.8 36.6 68.9 182.1 198.2 688.6
05/09 09:00 27.4 66 17.37 20.5 17 22 1017.5 0 37.2 36.2 67.7 179.1 194.5 675.5
05/09 08:50 27.4 69 18.16 21.2 17 22 1017.4 0 38.9 37.6 71.2 188.4 205.9 715.3
05/09 08:40 26.7 71 17.97 21 15 19 1017.3 0 38.6 37.5 71.0 187.8 205.0 712.1
05/09 08:30 26.7 72 18.23 21.2 13 17 1017.2 0 39.1 38.0 72.2 190.9 208.8 725.4
05/09 08:20 26.5 74 18.52 21.5 11 17 1017.2 0 39.8 38.6 73.7 194.9 213.7 742.3
05/09 08:10 25.8 77 18.54 21.5 11 13 1017.1 0 39.9 39.0 74.5 197.0 216.0 750.2
05/09 08:00 25.2 80 18.62 21.5 9 13 1017.1 0 40.1 39.4 75.4 199.5 218.9 760.4
05/09 07:50 24.4 83 18.47 21.3 7 9 1017 0 39.9 39.5 75.5 199.7 219.0 760.4
05/09 07:40 23.8 87 18.71 21.5 6 9 1016.9 0 40.4 40.2 77.3 204.3 224.4 779.4
05/09 07:30 22.8 92 18.69 21.4 6 7 1016.9 0 40.5 40.7 78.2 206.8 227.2 788.7
05/09 07:20 22.2 96 18.85 21.5 6 7 1016.8 0 40.9 41.3 79.6 210.6 231.6 803.9
05/09 07:10 21.6 97 18.4 21.1 7 7 1016.5 0 40.0 40.7 78.0 206.3 226.2 785.0
05/09 07:00 21.1 97 17.87 20.6 6 7 1016.4 0 38.9 39.9 75.9 200.7 219.2 760.7
05/09 06:50 19.9 97 16.66 19.4 7 7 1016.3 0 36.4 38.1 71.2 188.3 203.5 705.9
05/09 06:40 19.7 97 16.47 19.2 6 6 1016.1 0 36.1 37.8 70.5 186.3 201.0 697.4
05/09 06:30 19.6 97 16.37 19.1 6 6 1016 0 35.9 37.7 70.1 185.3 199.7 692.8
05/09 06:20 19.2 96 15.83 18.5 4 7 1015.7 0 34.7 36.8 67.9 179.4 192.3 667.1
05/09 06:10 19.5 96 16.11 18.8 0 0 1015.6 0 35.3 37.2 68.9 182.2 195.9 679.4
05/09 06:00 19.5 96 16.11 18.8 0 0 1015.5 0 35.3 37.2 68.9 182.1 195.9 679.4
05/09 05:50 19.7 96 16.3 19 0 0 1015.3 0 35.7 37.4 69.7 184.0 198.3 687.7
05/09 05:40 19.3 96 15.92 18.6 0 0 1015.2 0 34.9 36.9 68.2 180.2 193.4 670.8
05/09 05:30 19.6 96 16.2 18.9 0 0 1015.1 0 35.5 37.3 69.3 183.0 197.0 683.2
05/09 05:20 19.3 96 15.92 18.6 0 0 1015 0 34.9 36.9 68.2 180.2 193.4 670.7
05/09 05:10 19.6 96 16.2 18.9 0 0 1015.1 0 35.5 37.3 69.3 183.0 197.0 683.2
05/09 05:00 19.6 96 16.2 18.9 0 0 1015 0 35.5 37.3 69.2 183.0 196.9 683.1
05/09 04:50 19.6 96 16.2 18.9 0 0 1015 0 35.5 37.3 69.2 183.0 196.9 683.1
05/09 04:40 19.7 96 16.3 19 0 0 1015 0 35.7 37.4 69.6 184.0 198.2 687.6
05/09 04:30 19.8 96 16.4 19.1 0 0 1015 0 35.9 37.6 70.0 185.0 199.5 692.1
05/09 04:20 19.8 96 16.4 19.1 0 0 1015.1 0 35.9 37.6 70.0 185.0 199.5 692.2
05/09 04:10 19.8 96 16.4 19.1 0 0 1015.2 0 35.9 37.6 70.0 185.0 199.5 692.2
05/09 04:00 20 96 16.59 19.3 0 0 1015.2 0 36.3 37.9 70.7 187.0 202.0 700.7
05/09 03:50 19.9 96 16.49 19.2 0 0 1015.2 0 36.1 37.7 70.4 185.9 200.7 696.2
05/09 03:40 20.1 96 16.69 19.4 0 0 1015.2 0 36.5 38.0 71.1 188.0 203.3 705.2
05/09 03:30 20.1 96 16.69 19.4 0 0 1015.2 0 36.5 38.0 71.1 188.0 203.3 705.2
05/09 03:20 20.1 95 16.51 19.3 0 0 1015.3 0 36.1 37.7 70.3 185.7 200.5 695.4
05/09 03:10 19.9 95 16.32 19.1 0 0 1015.4 0 35.7 37.4 69.6 183.8 198.1 687.1
05/09 03:00 20.2 95 16.61 19.4 0 0 1015.4 0 36.3 37.8 70.7 186.7 201.8 700.0
05/09 02:50 20 95 16.42 19.2 0 0 1015.5 0 35.9 37.5 70.0 184.9 199.4 691.6
05/09 02:40 20.1 94 16.34 19.1 0 0 1015.7 0 35.7 37.4 69.5 183.6 197.9 686.5
05/09 02:30 20.4 94 16.63 19.4 0 0 1015.8 0 36.3 37.8 70.6 186.6 201.6 699.4
05/09 02:20 20.6 93 16.64 19.4 0 0 1015.9 0 36.3 37.7 70.5 186.2 201.2 698.1
05/09 02:10 20.8 93 16.84 19.6 0 0 1016 0 36.7 38.0 71.2 188.3 203.8 707.1
05/09 02:00 21.1 93 17.13 19.9 0 0 1016.1 0 37.3 38.4 72.3 191.2 207.5 720.0
05/09 01:50 21.2 92 17.05 19.8 0 0 1016.2 0 37.2 38.2 71.9 189.9 206.0 714.8
05/09 01:40 21.3 92 17.15 19.9 4 6 1016.3 0 37.4 38.4 72.3 191.0 207.3 719.3
05/09 01:30 21.5 92 17.35 20.1 0 6 1016.3 0 37.8 38.7 73.0 193.0 209.8 728.2
05/09 01:20 21.5 91 17.16 20 4 6 1016.5 0 37.4 38.3 72.1 190.6 206.9 718.0
05/09 01:10 21.9 91 17.56 20.4 6 7 1016.5 0 38.2 38.9 73.6 194.7 212.0 735.8
05/09 01:00 22.1 89 17.37 20.2 7 9 1016.7 0 37.8 38.5 72.6 191.8 208.5 723.7

Last Refresh: 05-Sep-2026 17:33:15

Bureau of Meteorology